createdAt,value
2017-10-19T00:01:15.409Z,31.55
2017-10-19T00:03:44.374Z,27.50
2017-10-19T00:06:13.350Z,28.25
2017-10-19T00:08:43.229Z,30.75
2017-10-19T00:11:12.430Z,25.40
2017-10-19T00:13:41.611Z,26.62
2017-10-19T00:16:10.864Z,26.27
2017-10-19T00:18:40.002Z,24.02
2017-10-19T00:21:09.190Z,29.92
2017-10-19T00:23:38.372Z,28.62
2017-10-19T00:26:07.528Z,27.20
2017-10-19T00:28:37.478Z,27.65
2017-10-19T00:31:06.610Z,26.05
2017-10-19T00:33:35.735Z,28.08
2017-10-19T00:36:05.679Z,25.45
2017-10-19T00:38:34.852Z,28.80
2017-10-19T00:41:04.750Z,24.23
2017-10-19T00:43:34.186Z,28.17
2017-10-19T00:46:04.644Z,27.08
2017-10-19T00:48:34.397Z,29.27
2017-10-19T00:51:12.680Z,29.73
2017-10-19T00:53:52.844Z,29.45
2017-10-19T00:56:30.462Z,27.65
2017-10-19T00:59:02.876Z,29.87
2017-10-19T01:01:44.379Z,28.50
2017-10-19T01:04:22.970Z,25.05
2017-10-19T01:07:04.276Z,28.92
2017-10-19T01:09:49.971Z,24.48
2017-10-19T01:12:19.044Z,28.83
2017-10-19T01:14:48.015Z,29.77
2017-10-19T01:17:16.976Z,26.95
2017-10-19T01:19:46.046Z,27.48
2017-10-19T01:22:15.094Z,27.80
2017-10-19T01:24:44.958Z,29.20
2017-10-19T01:27:14.010Z,26.77
2017-10-19T01:29:43.022Z,26.83
2017-10-19T01:32:12.219Z,30.23
2017-10-19T01:34:41.316Z,35.97
2017-10-19T01:37:10.389Z,34.83
2017-10-19T01:39:39.449Z,39.80
2017-10-19T01:42:08.606Z,39.63
2017-10-19T01:44:39.698Z,35.92
2017-10-19T01:47:09.580Z,35.25
2017-10-19T01:49:47.356Z,34.35
2017-10-19T01:52:16.479Z,33.83
2017-10-19T01:54:45.628Z,30.58
2017-10-19T01:57:14.596Z,33.45
2017-10-19T01:59:44.328Z,36.05
2017-10-19T02:02:13.306Z,30.50
2017-10-19T02:04:43.092Z,36.42
2017-10-19T02:07:12.095Z,34.67
2017-10-19T02:09:41.920Z,37.25
2017-10-19T02:12:11.745Z,40.63
2017-10-19T02:14:41.594Z,36.20
2017-10-19T02:17:10.617Z,37.13
2017-10-19T02:19:40.515Z,35.60
2017-10-19T02:22:09.520Z,37.42
2017-10-19T02:24:38.508Z,32.17
2017-10-19T02:27:08.257Z,33.50
2017-10-19T02:29:37.991Z,35.95
2017-10-19T02:32:06.963Z,34.38
2017-10-19T02:34:36.657Z,32.65
2017-10-19T02:37:06.439Z,33.15
2017-10-19T02:39:35.405Z,34.05
2017-10-19T02:42:04.426Z,37.90
2017-10-19T02:44:33.378Z,36.00
2017-10-19T02:47:03.250Z,37.85
2017-10-19T02:49:32.277Z,35.28
2017-10-19T02:52:01.426Z,34.55
2017-10-19T02:54:31.167Z,34.03
2017-10-19T02:57:01.084Z,33.17
2017-10-19T02:59:30.841Z,37.33
2017-10-19T03:01:59.804Z,35.97
2017-10-19T03:04:28.781Z,32.00
2017-10-19T03:06:58.590Z,35.30
2017-10-19T03:09:27.793Z,34.08
2017-10-19T03:11:56.758Z,36.90
2017-10-19T03:14:25.789Z,44.15
2017-10-19T03:16:54.741Z,44.20
2017-10-19T03:19:23.753Z,39.58
2017-10-19T03:21:53.500Z,44.80
2017-10-19T03:24:22.498Z,47.67
2017-10-19T03:26:51.458Z,43.70
2017-10-19T03:29:21.213Z,48.85
2017-10-19T03:31:50.229Z,51.53
2017-10-19T03:34:19.215Z,47.10
2017-10-19T03:36:48.991Z,42.70
2017-10-19T03:39:17.928Z,42.78
2017-10-19T03:41:47.684Z,43.13
2017-10-19T03:44:16.812Z,41.50
2017-10-19T03:46:45.792Z,39.80
2017-10-19T03:49:14.792Z,44.35
2017-10-19T03:51:43.890Z,40.20
2017-10-19T03:54:12.877Z,42.55
2017-10-19T03:56:41.877Z,41.55
2017-10-19T03:59:10.858Z,42.83
2017-10-19T04:02:42.265Z,43.33
2017-10-19T04:05:12.081Z,43.97
2017-10-19T04:07:41.834Z,45.47
2017-10-19T04:10:10.890Z,43.10
2017-10-19T04:12:42.076Z,41.47
2017-10-19T04:15:11.050Z,38.72
2017-10-19T04:17:40.044Z,38.35
2017-10-19T04:20:09.034Z,41.95
2017-10-19T04:22:40.764Z,40.60
2017-10-19T04:25:10.484Z,37.65
2017-10-19T04:27:40.279Z,38.92
2017-10-19T04:30:10.138Z,42.92
2017-10-19T04:32:39.521Z,44.65
2017-10-19T04:35:08.502Z,39.08
2017-10-19T04:37:38.278Z,41.70
2017-10-19T04:40:07.293Z,41.22
2017-10-19T04:42:36.284Z,49.70
2017-10-19T04:45:05.303Z,54.22
2017-10-19T04:47:34.390Z,41.78
2017-10-19T04:50:04.224Z,47.20
2017-10-19T04:52:33.248Z,38.45
2017-10-19T04:55:02.272Z,42.83
2017-10-19T04:57:31.260Z,41.92
2017-10-19T05:00:00.994Z,41.90
2017-10-19T05:02:30.725Z,45.40
2017-10-19T05:04:59.680Z,44.50
2017-10-19T05:07:29.513Z,39.30
2017-10-19T05:09:59.639Z,36.67
2017-10-19T05:12:28.781Z,38.90
2017-10-19T05:14:58.564Z,40.20
2017-10-19T05:17:27.571Z,40.47
2017-10-19T05:19:56.596Z,38.63
2017-10-19T05:22:25.681Z,38.75
2017-10-19T05:24:54.750Z,46.63
2017-10-19T05:27:23.748Z,40.12
2017-10-19T05:29:53.624Z,44.97
2017-10-19T05:32:23.447Z,40.40
2017-10-19T05:34:52.404Z,39.38
2017-10-19T05:37:21.390Z,48.10
2017-10-19T05:39:50.421Z,39.75
2017-10-19T05:42:19.439Z,41.20
2017-10-19T05:44:48.438Z,43.63
2017-10-19T05:47:17.485Z,49.00
2017-10-19T05:49:47.341Z,43.70
2017-10-19T05:52:16.365Z,43.10
2017-10-19T05:54:45.565Z,36.58
2017-10-19T05:57:15.313Z,39.30
2017-10-19T05:59:45.133Z,41.15
2017-10-19T06:02:14.186Z,42.95
2017-10-19T06:04:43.192Z,36.75
2017-10-19T06:07:12.976Z,44.47
2017-10-19T06:09:42.295Z,47.05
2017-10-19T06:12:12.032Z,51.80
2017-10-19T06:14:41.793Z,50.42
2017-10-19T06:17:11.142Z,43.67
2017-10-19T06:19:40.933Z,44.45
2017-10-19T06:22:09.966Z,40.83
2017-10-19T06:24:38.960Z,43.17
2017-10-19T06:27:07.922Z,41.88
2017-10-19T06:29:37.671Z,50.35
2017-10-19T06:32:07.845Z,46.20
2017-10-19T06:34:37.585Z,54.25
2017-10-19T06:37:07.367Z,36.28
2017-10-19T06:39:37.205Z,39.58
2017-10-19T06:42:06.302Z,49.63
2017-10-19T06:44:35.410Z,47.08
2017-10-19T06:47:04.419Z,44.42
2017-10-19T06:49:33.439Z,44.97
2017-10-19T06:52:03.289Z,39.42
2017-10-19T06:54:33.068Z,37.97
2017-10-19T06:57:02.978Z,42.92
2017-10-19T06:59:31.982Z,42.92
2017-10-19T07:02:01.015Z,44.40
2017-10-19T07:04:30.030Z,50.60
2017-10-19T07:06:59.085Z,38.78
2017-10-19T07:09:28.878Z,43.25
2017-10-19T07:11:57.880Z,38.42
2017-10-19T07:14:27.743Z,47.28
2017-10-19T07:17:05.258Z,41.17
2017-10-19T07:19:35.105Z,48.15
2017-10-19T07:22:04.922Z,40.38
2017-10-19T07:24:34.690Z,41.75
2017-10-19T07:27:03.808Z,41.67
2017-10-19T07:29:34.300Z,42.08
2017-10-19T07:32:04.111Z,40.80
2017-10-19T07:34:33.101Z,36.35
2017-10-19T07:37:02.115Z,38.50
2017-10-19T07:39:31.183Z,39.65
2017-10-19T07:42:00.291Z,41.35
2017-10-19T07:44:29.450Z,43.80
2017-10-19T07:46:58.522Z,38.13
2017-10-19T07:49:28.248Z,36.30
2017-10-19T07:52:02.962Z,41.33
2017-10-19T07:54:32.778Z,40.95
2017-10-19T07:57:02.573Z,38.13
2017-10-19T07:59:31.766Z,40.83
2017-10-19T08:02:00.777Z,34.60
2017-10-19T08:04:30.690Z,35.20
2017-10-19T08:07:00.617Z,35.65
2017-10-19T08:09:29.648Z,28.45
2017-10-19T08:11:59.785Z,24.95
2017-10-19T08:14:28.940Z,26.73
2017-10-19T08:16:58.228Z,25.02
2017-10-19T08:19:27.311Z,21.98
2017-10-19T08:22:01.611Z,24.00
2017-10-19T08:24:31.557Z,22.50
2017-10-19T08:27:00.650Z,23.98
2017-10-19T08:29:29.785Z,18.30
2017-10-19T08:31:58.917Z,20.90
2017-10-19T08:34:28.001Z,16.93
2017-10-19T08:36:57.028Z,16.30
2017-10-19T08:39:26.900Z,17.93
2017-10-19T08:41:55.977Z,18.07
2017-10-19T08:44:25.765Z,17.10
2017-10-19T08:46:54.793Z,16.00
2017-10-19T08:49:23.795Z,17.67
2017-10-19T08:51:52.771Z,20.17
2017-10-19T08:54:21.757Z,19.17
2017-10-19T08:56:51.561Z,17.03
2017-10-19T08:59:20.726Z,19.40
2017-10-19T09:01:49.923Z,17.30
2017-10-19T09:04:19.686Z,16.60
2017-10-19T09:06:48.733Z,18.50
2017-10-19T09:09:18.575Z,18.03
2017-10-19T09:11:47.683Z,18.53
2017-10-19T09:14:16.710Z,17.90
2017-10-19T09:16:46.802Z,17.17
2017-10-19T09:19:37.936Z,17.73
2017-10-19T09:22:14.885Z,19.17
2017-10-19T09:24:51.174Z,18.33
2017-10-19T09:27:30.984Z,17.63
2017-10-19T09:30:00.103Z,19.00
2017-10-19T09:32:29.899Z,18.90
2017-10-19T09:34:59.510Z,18.37
2017-10-19T09:37:28.673Z,17.50
2017-10-19T09:39:57.904Z,16.93
2017-10-19T09:42:27.116Z,16.53
2017-10-19T09:44:57.946Z,17.33
2017-10-19T09:47:27.251Z,18.80
2017-10-19T09:49:56.440Z,15.07
2017-10-19T09:52:25.568Z,16.63
2017-10-19T09:54:55.567Z,16.33
2017-10-19T09:57:25.309Z,18.43
2017-10-19T09:59:56.699Z,17.80
2017-10-19T10:02:32.591Z,15.20
2017-10-19T10:05:02.729Z,21.20
2017-10-19T10:07:36.487Z,15.43
2017-10-19T10:10:09.143Z,21.20
2017-10-19T10:12:39.385Z,18.63
2017-10-19T10:15:10.119Z,13.27
2017-10-19T10:17:41.665Z,12.90
2017-10-19T10:20:10.730Z,14.37
2017-10-19T10:22:40.604Z,14.20
2017-10-19T10:25:10.455Z,14.10
2017-10-19T10:27:40.275Z,13.67
2017-10-19T10:30:10.112Z,12.57
2017-10-19T10:32:39.307Z,13.00
2017-10-19T10:35:08.513Z,12.83
2017-10-19T10:37:37.615Z,17.90
2017-10-19T10:40:06.724Z,12.87
2017-10-19T10:48:14.872Z,12.03
2017-10-19T10:50:44.331Z,10.90
2017-10-19T10:53:14.194Z,12.40
2017-10-19T10:55:45.112Z,12.10
2017-10-19T10:58:14.148Z,10.97
2017-10-19T11:00:44.007Z,11.83
2017-10-19T11:03:13.196Z,11.93
2017-10-19T11:05:43.042Z,12.47
2017-10-19T11:08:12.140Z,11.70
2017-10-19T11:10:42.148Z,11.67
2017-10-19T11:13:11.968Z,12.00
2017-10-19T11:15:41.831Z,11.63
2017-10-19T11:18:11.728Z,11.83
2017-10-19T11:20:43.186Z,11.63
2017-10-19T11:23:12.231Z,12.07
2017-10-19T11:25:41.308Z,11.43
2017-10-19T11:28:12.337Z,11.20
2017-10-19T11:30:41.429Z,11.50
2017-10-19T11:33:10.588Z,11.67
2017-10-19T11:35:41.088Z,11.87
2017-10-19T11:38:10.175Z,12.57
2017-10-19T11:40:39.277Z,11.23
2017-10-19T11:43:08.395Z,11.10
2017-10-19T11:45:38.042Z,11.60
2017-10-19T11:48:11.646Z,13.30
2017-10-19T11:50:40.730Z,10.77
2017-10-19T11:53:09.769Z,10.87
2017-10-19T11:55:39.087Z,12.00
2017-10-19T11:58:08.195Z,11.40
2017-10-19T12:00:37.441Z,11.73
2017-10-19T12:03:06.515Z,11.20
2017-10-19T12:05:37.021Z,11.30
2017-10-19T12:08:06.922Z,11.67
2017-10-19T12:10:35.948Z,11.07
2017-10-19T12:13:05.814Z,11.03
2017-10-19T12:15:34.837Z,11.87
2017-10-19T12:18:03.841Z,11.53
2017-10-19T12:20:33.701Z,12.40
2017-10-19T12:23:02.782Z,11.20
2017-10-19T12:25:32.656Z,10.27
2017-10-19T12:28:02.585Z,10.60
2017-10-19T12:30:33.255Z,10.40
2017-10-19T12:33:02.361Z,11.67
2017-10-19T12:35:31.388Z,10.67
2017-10-19T12:38:00.421Z,11.23
2017-10-19T12:40:30.326Z,12.33
2017-10-19T12:43:00.235Z,11.20
2017-10-19T12:45:29.340Z,11.53
2017-10-19T12:47:58.441Z,13.37
2017-10-19T12:50:27.538Z,11.13
2017-10-19T12:52:56.559Z,11.10
2017-10-19T12:55:25.612Z,12.90
2017-10-19T12:57:57.033Z,10.40
2017-10-19T13:00:26.037Z,11.83
2017-10-19T13:02:55.906Z,12.23
2017-10-19T13:05:24.933Z,12.73
2017-10-19T13:07:54.016Z,12.00
2017-10-19T13:10:23.032Z,12.50
2017-10-19T13:12:52.859Z,12.07
2017-10-19T13:15:21.919Z,10.83
2017-10-19T13:17:50.949Z,10.03
2017-10-19T13:22:27.070Z,10.20
2017-10-19T13:24:56.644Z,12.53
2017-10-19T13:27:25.801Z,10.80
2017-10-19T13:29:54.852Z,10.67
2017-10-19T13:32:24.815Z,8.33
2017-10-19T13:34:54.611Z,10.67
2017-10-19T13:37:23.674Z,10.50
2017-10-19T13:39:52.733Z,8.63
2017-10-19T13:42:22.736Z,13.33
2017-10-19T13:44:52.983Z,9.00
2017-10-19T13:47:22.837Z,8.80
2017-10-19T13:49:52.103Z,9.00
2017-10-19T13:52:21.917Z,9.13
2017-10-19T13:54:52.812Z,9.90
2017-10-19T13:57:22.630Z,10.57
2017-10-19T13:59:52.556Z,7.90
2017-10-19T14:02:22.325Z,10.37
2017-10-19T14:04:52.392Z,9.67
2017-10-19T14:07:22.426Z,8.57
2017-10-19T14:09:51.629Z,8.43
2017-10-19T14:12:20.693Z,10.67
2017-10-19T14:14:50.728Z,7.90
2017-10-19T14:17:19.863Z,7.47
2017-10-19T14:19:48.976Z,7.53
2017-10-19T14:22:18.157Z,9.03
2017-10-19T14:24:48.765Z,8.83
2017-10-19T14:27:25.045Z,8.13
2017-10-19T14:29:54.150Z,8.57
2017-10-19T14:32:23.817Z,18.20
2017-10-19T14:34:53.017Z,9.55
2017-10-19T14:37:22.873Z,10.73
2017-10-19T14:39:53.823Z,11.55
2017-10-19T14:42:23.119Z,8.57
2017-10-19T14:44:52.225Z,8.20
2017-10-19T14:47:21.380Z,9.68
2017-10-19T14:49:50.572Z,8.27
2017-10-19T14:52:21.148Z,8.68
2017-10-19T14:54:51.425Z,8.93
2017-10-19T14:57:30.655Z,12.23
2017-10-19T14:59:59.888Z,10.30
2017-10-19T15:02:29.745Z,10.05
2017-10-19T15:04:58.911Z,9.45
2017-10-19T15:07:28.125Z,13.62
2017-10-19T15:09:59.822Z,10.02
2017-10-19T15:12:28.910Z,11.20
2017-10-19T15:14:58.155Z,13.15
2017-10-19T15:17:28.019Z,8.90
2017-10-19T15:19:57.903Z,9.73
2017-10-19T15:22:27.782Z,9.48
2017-10-19T15:24:56.876Z,9.57
2017-10-19T15:27:25.901Z,8.85
2017-10-19T15:32:56.965Z,8.35
2017-10-19T15:35:26.772Z,9.27
2017-10-19T15:37:55.874Z,10.25
2017-10-19T15:40:26.017Z,9.23
2017-10-19T15:42:55.112Z,12.10
2017-10-19T15:45:31.581Z,8.52
2017-10-19T15:48:01.046Z,10.48
2017-10-19T15:50:30.956Z,10.27
2017-10-19T15:53:01.081Z,12.50
2017-10-19T15:55:30.972Z,14.82
2017-10-19T15:58:00.091Z,10.07
2017-10-19T16:00:30.266Z,13.98
2017-10-19T16:02:59.731Z,11.90
2017-10-19T16:05:29.525Z,11.12
2017-10-19T16:07:58.638Z,10.05
2017-10-19T16:10:28.570Z,8.98
2017-10-19T16:12:58.472Z,9.38
2017-10-19T16:15:28.541Z,9.40
2017-10-19T16:17:57.598Z,9.93
2017-10-19T16:20:31.443Z,10.55
2017-10-19T16:23:01.419Z,9.75
2017-10-19T16:25:31.624Z,10.93
2017-10-19T16:28:01.785Z,9.73
2017-10-19T16:30:30.923Z,9.95
2017-10-19T16:33:00.411Z,10.23
2017-10-19T16:35:32.345Z,9.85
2017-10-19T16:38:07.292Z,10.30
2017-10-19T16:40:39.600Z,11.35
2017-10-19T16:43:21.295Z,10.02
2017-10-19T16:46:13.796Z,11.98
2017-10-19T16:48:51.148Z,11.85
2017-10-19T16:53:56.955Z,10.85
2017-10-19T16:56:26.794Z,10.60
2017-10-19T16:58:55.845Z,11.68
2017-10-19T17:01:25.690Z,11.85
2017-10-19T17:03:54.773Z,11.98
2017-10-19T17:06:23.828Z,12.07
2017-10-19T17:08:53.668Z,10.45
2017-10-19T17:11:27.239Z,9.70
2017-10-19T17:13:56.310Z,10.93
2017-10-19T17:16:25.334Z,10.57
2017-10-19T17:18:55.403Z,9.57
2017-10-19T17:21:25.297Z,9.80
2017-10-19T17:23:55.246Z,9.43
2017-10-19T17:26:24.289Z,10.38
2017-10-19T17:28:53.320Z,8.65
2017-10-19T17:31:22.369Z,10.75
2017-10-19T17:33:52.431Z,9.75
2017-10-19T17:36:22.209Z,8.73
2017-10-19T17:38:51.374Z,9.63
2017-10-19T17:41:21.169Z,10.43
2017-10-19T17:43:50.846Z,11.65
2017-10-19T17:46:19.888Z,13.05
2017-10-19T17:48:49.801Z,8.68
2017-10-19T17:51:20.421Z,8.68
2017-10-19T17:53:49.482Z,11.35
2017-10-19T17:56:18.494Z,9.45
2017-10-19T17:58:47.602Z,12.48
2017-10-19T18:01:16.788Z,11.75
2017-10-19T18:03:46.679Z,11.90
2017-10-19T18:06:15.978Z,11.52
2017-10-19T18:08:45.004Z,9.02
2017-10-19T18:11:14.847Z,10.45
2017-10-19T18:13:44.201Z,10.10
2017-10-19T18:16:13.796Z,11.40
2017-10-19T18:18:43.747Z,9.07
2017-10-19T18:21:14.724Z,9.15
2017-10-19T18:23:44.980Z,9.77
2017-10-19T18:26:14.797Z,12.60
2017-10-19T18:28:44.647Z,9.88
2017-10-19T18:31:14.417Z,9.55
2017-10-19T18:33:43.676Z,10.07
2017-10-19T18:36:12.918Z,9.50
2017-10-19T18:38:42.114Z,8.77
2017-10-19T18:41:11.196Z,9.40
2017-10-19T18:43:40.424Z,9.80
2017-10-19T18:46:09.584Z,11.38
2017-10-19T18:48:38.672Z,8.98
2017-10-19T18:51:07.671Z,10.77
2017-10-19T18:53:39.494Z,9.90
2017-10-19T18:56:10.273Z,11.07
2017-10-19T18:58:43.124Z,9.77
2017-10-19T19:01:12.258Z,10.43
2017-10-19T19:03:41.363Z,9.82
2017-10-19T19:06:10.555Z,10.27
2017-10-19T19:08:39.697Z,11.75
2017-10-19T19:11:09.791Z,9.05
2017-10-19T19:13:38.832Z,11.43
2017-10-19T19:16:08.822Z,10.45
2017-10-19T19:18:38.735Z,8.95
2017-10-19T19:21:08.764Z,8.93
2017-10-19T19:23:38.226Z,11.85
2017-10-19T19:26:07.474Z,8.95
2017-10-19T19:28:36.524Z,10.60
2017-10-19T19:31:06.332Z,8.73
2017-10-19T19:33:35.387Z,9.55
2017-10-19T19:36:04.441Z,9.77
2017-10-19T19:38:34.265Z,9.00
2017-10-19T19:41:04.097Z,9.02
2017-10-19T19:43:33.194Z,10.38
2017-10-19T19:46:02.341Z,12.60
2017-10-19T19:48:32.232Z,10.73
2017-10-19T19:51:01.265Z,8.73
2017-10-19T19:53:30.310Z,11.63
2017-10-19T19:55:59.362Z,10.30
2017-10-19T19:58:29.243Z,9.20
2017-10-19T20:00:58.260Z,9.93
2017-10-19T20:03:27.331Z,9.88
2017-10-19T20:05:56.303Z,9.65
2017-10-19T20:08:25.358Z,11.38
2017-10-19T20:10:55.115Z,12.07
2017-10-19T20:13:24.138Z,9.50
2017-10-19T20:15:53.131Z,9.25
2017-10-19T20:18:22.196Z,9.60
2017-10-19T20:20:51.250Z,10.07
2017-10-19T20:23:21.144Z,9.55
2017-10-19T20:25:50.179Z,9.18
2017-10-19T20:28:19.245Z,8.50
2017-10-19T20:30:49.941Z,9.68
2017-10-19T20:33:18.956Z,9.65
2017-10-19T20:35:49.880Z,9.43
2017-10-19T20:38:19.605Z,12.98
2017-10-19T20:40:49.398Z,13.93
2017-10-19T20:43:18.475Z,11.02
2017-10-19T20:45:47.526Z,9.00
2017-10-19T20:48:17.316Z,8.68
2017-10-19T20:50:47.212Z,8.60
2017-10-19T20:53:16.351Z,8.30
2017-10-19T20:55:46.153Z,10.52
2017-10-19T20:58:15.690Z,8.48
2017-10-19T21:00:44.802Z,9.13
2017-10-19T21:03:13.847Z,9.85
2017-10-19T21:05:43.690Z,9.38
2017-10-19T21:08:13.537Z,9.43
2017-10-19T21:10:42.783Z,10.13
2017-10-19T21:13:13.273Z,12.82
2017-10-19T21:15:52.341Z,9.25
2017-10-19T21:18:22.548Z,9.85
2017-10-19T21:20:52.493Z,9.25
2017-10-19T21:23:21.955Z,9.60
2017-10-19T21:25:51.071Z,9.35
2017-10-19T21:28:21.364Z,11.05
2017-10-19T21:30:50.661Z,9.52
2017-10-19T21:33:19.849Z,9.98
2017-10-19T21:35:49.013Z,10.70
2017-10-19T21:42:58.021Z,11.68
2017-10-19T21:45:27.904Z,10.77
2017-10-19T21:47:56.972Z,12.00
2017-10-19T21:54:55.787Z,11.52
2017-10-19T21:57:24.760Z,10.35
2017-10-19T21:59:54.523Z,9.60
2017-10-19T22:02:29.975Z,9.70
2017-10-19T22:14:08.336Z,10.35
2017-10-19T22:16:43.435Z,9.77
2017-10-19T22:19:12.498Z,9.32
2017-10-19T22:26:10.520Z,10.18
2017-10-19T22:28:40.342Z,9.45
2017-10-19T22:31:10.110Z,8.90
2017-10-19T22:33:39.170Z,9.55
2017-10-19T22:36:08.182Z,10.85
2017-10-19T22:38:37.965Z,10.80
2017-10-19T22:41:07.772Z,13.43
2017-10-19T22:43:36.814Z,14.45
2017-10-19T22:46:05.778Z,12.98
2017-10-19T22:48:44.982Z,13.05
2017-10-19T22:51:13.955Z,12.80
2017-10-19T22:53:42.966Z,13.27
2017-10-19T22:56:12.749Z,12.43
2017-10-19T22:58:41.763Z,12.15
2017-10-19T23:01:11.595Z,13.20
2017-10-19T23:03:40.648Z,13.32
2017-10-19T23:06:09.667Z,16.17
2017-10-19T23:08:39.436Z,13.85
2017-10-19T23:11:08.472Z,11.93
2017-10-19T23:18:08.685Z,13.43
2017-10-19T23:20:37.860Z,13.50
2017-10-19T23:23:06.821Z,14.25
2017-10-19T23:34:45.947Z,13.73
2017-10-19T23:41:44.895Z,13.10
2017-10-19T23:48:43.340Z,15.75
2017-10-19T23:51:13.049Z,21.35
2017-10-19T23:53:42.373Z,17.62
2017-10-19T23:56:11.892Z,18.65
2017-10-19T23:58:41.268Z,16.25
